Maldives Meteorological Service

SYNOP

Station Code SYNOP
43555
AAXX 12034 43555 42470 79902 10286 20258 30090 40092 82258 333 20286 59001 82818 84622 87276 555 10693=
43533
AAXX 12034 43533 42462 83603 10282 20255 30086 40088 8227/ 333 20243 58004 82817 87361 555 10903=
43577
AAXX 12034 43577 42464 79902 10292 20253 30096 40098 81272 333 20276 58001 81818 86363 555 10799=
43588
AAXX 12034 43588 42465 70904 10291 20243 30091 40092 82232 333 20275 59002 82818 87077 555 11165=
43599
AAXX 12034 43599 42462 41407 10304 20265 30091 40093 82231 333 20269 59003 82818 84077 555 11435 =
Last Updated : 2020-07-12 08:01:52